sensor_id;sensor_type;location;lat;lon;timestamp;pressure;altitude;pressure_sealevel;temperature;humidity
7050;BME280;22263;52.260;10.548;2023-11-19T00:01:43;99926.06;;;6.18;100.00
7050;BME280;22263;52.260;10.548;2023-11-19T00:04:14;99914.09;;;6.29;100.00
7050;BME280;22263;52.260;10.548;2023-11-19T00:06:44;99913.00;;;6.34;100.00
7050;BME280;22263;52.260;10.548;2023-11-19T00:09:14;99916.78;;;6.26;100.00
7050;BME280;22263;52.260;10.548;2023-11-19T00:11:47;99920.34;;;6.26;100.00
7050;BME280;22263;52.260;10.548;2023-11-19T00:14:21;99915.41;;;6.35;100.00
7050;BME280;22263;52.260;10.548;2023-11-19T00:16:53;99901.06;;;6.23;100.00
7050;BME280;22263;52.260;10.548;2023-11-19T00:19:23;99896.63;;;6.37;100.00
7050;BME280;22263;52.260;10.548;2023-11-19T00:21:53;99886.09;;;6.43;100.00
7050;BME280;22263;52.260;10.548;2023-11-19T00:24:23;99883.00;;;6.44;100.00
7050;BME280;22263;52.260;10.548;2023-11-19T00:26:55;99881.13;;;6.48;100.00
7050;BME280;22263;52.260;10.548;2023-11-19T00:29:25;99879.16;;;6.49;100.00
7050;BME280;22263;52.260;10.548;2023-11-19T00:31:54;99874.75;;;6.44;100.00
7050;BME280;22263;52.260;10.548;2023-11-19T00:34:24;99873.41;;;6.57;100.00
7050;BME280;22263;52.260;10.548;2023-11-19T00:36:54;99854.88;;;6.51;100.00
7050;BME280;22263;52.260;10.548;2023-11-19T00:39:24;99843.03;;;6.47;100.00
7050;BME280;22263;52.260;10.548;2023-11-19T00:41:57;99842.53;;;6.64;100.00
7050;BME280;22263;52.260;10.548;2023-11-19T00:44:26;99837.03;;;6.64;100.00
7050;BME280;22263;52.260;10.548;2023-11-19T00:46:56;99820.69;;;6.71;100.00
7050;BME280;22263;52.260;10.548;2023-11-19T00:49:26;99815.63;;;6.50;100.00
7050;BME280;22263;52.260;10.548;2023-11-19T00:51:56;99813.34;;;6.79;100.00
7050;BME280;22263;52.260;10.548;2023-11-19T00:54:26;99801.97;;;6.80;100.00
7050;BME280;22263;52.260;10.548;2023-11-19T00:56:59;99800.22;;;6.69;100.00
7050;BME280;22263;52.260;10.548;2023-11-19T00:59:28;99785.81;;;6.75;100.00
7050;BME280;22263;52.260;10.548;2023-11-19T01:01:59;99778.41;;;6.79;100.00
7050;BME280;22263;52.260;10.548;2023-11-19T01:04:33;99784.78;;;6.87;100.00
7050;BME280;22263;52.260;10.548;2023-11-19T01:07:04;99775.38;;;6.88;100.00
7050;BME280;22263;52.260;10.548;2023-11-19T01:09:41;99787.53;;;6.87;100.00
7050;BME280;22263;52.260;10.548;2023-11-19T01:12:14;99794.19;;;6.86;100.00
7050;BME280;22263;52.260;10.548;2023-11-19T01:14:43;99791.66;;;7.00;100.00
7050;BME280;22263;52.260;10.548;2023-11-19T01:17:13;99782.41;;;7.15;100.00
7050;BME280;22263;52.260;10.548;2023-11-19T01:19:44;99772.44;;;7.00;100.00
7050;BME280;22263;52.260;10.548;2023-11-19T01:22:14;99766.25;;;7.10;100.00
7050;BME280;22263;52.260;10.548;2023-11-19T01:24:43;99772.66;;;7.18;100.00
7050;BME280;22263;52.260;10.548;2023-11-19T01:27:16;99762.78;;;6.87;100.00
7050;BME280;22263;52.260;10.548;2023-11-19T01:29:45;99757.69;;;6.85;100.00
7050;BME280;22263;52.260;10.548;2023-11-19T01:32:15;99753.41;;;6.88;100.00
7050;BME280;22263;52.260;10.548;2023-11-19T01:34:45;99742.50;;;6.95;100.00
7050;BME280;22263;52.260;10.548;2023-11-19T01:37:15;99728.28;;;7.19;100.00
7050;BME280;22263;52.260;10.548;2023-11-19T01:39:45;99726.31;;;7.20;100.00
7050;BME280;22263;52.260;10.548;2023-11-19T01:42:27;99717.72;;;7.25;100.00
7050;BME280;22263;52.260;10.548;2023-11-19T01:44:58;99721.25;;;7.22;100.00
7050;BME280;22263;52.260;10.548;2023-11-19T01:47:26;99716.66;;;7.33;100.00
7050;BME280;22263;52.260;10.548;2023-11-19T01:49:57;99715.59;;;7.44;100.00
7050;BME280;22263;52.260;10.548;2023-11-19T01:52:28;99702.28;;;7.47;100.00
7050;BME280;22263;52.260;10.548;2023-11-19T01:54:58;99709.31;;;7.44;100.00
7050;BME280;22263;52.260;10.548;2023-11-19T01:57:32;99705.34;;;7.41;100.00
7050;BME280;22263;52.260;10.548;2023-11-19T02:00:06;99684.50;;;7.37;100.00
7050;BME280;22263;52.260;10.548;2023-11-19T02:02:43;99685.78;;;7.47;100.00
7050;BME280;22263;52.260;10.548;2023-11-19T02:05:14;99685.13;;;7.60;100.00
7050;BME280;22263;52.260;10.548;2023-11-19T02:07:44;99676.75;;;7.50;100.00
7050;BME280;22263;52.260;10.548;2023-11-19T02:10:15;99670.53;;;7.56;100.00
7050;BME280;22263;52.260;10.548;2023-11-19T02:12:48;99672.16;;;7.61;100.00
7050;BME280;22263;52.260;10.548;2023-11-19T02:15:19;99660.50;;;7.78;100.00
7050;BME280;22263;52.260;10.548;2023-11-19T02:17:51;99638.91;;;7.80;100.00
7050;BME280;22263;52.260;10.548;2023-11-19T02:20:21;99655.13;;;7.92;100.00
7050;BME280;22263;52.260;10.548;2023-11-19T02:22:53;99646.97;;;8.06;100.00
7050;BME280;22263;52.260;10.548;2023-11-19T02:25:27;99650.50;;;8.07;100.00
7050;BME280;22263;52.260;10.548;2023-11-19T02:28:03;99654.91;;;8.15;100.00
7050;BME280;22263;52.260;10.548;2023-11-19T02:30:33;99656.16;;;8.24;100.00
7050;BME280;22263;52.260;10.548;2023-11-19T02:33:03;99642.47;;;8.35;100.00
7050;BME280;22263;52.260;10.548;2023-11-19T02:35:33;99637.81;;;8.39;100.00
7050;BME280;22263;52.260;10.548;2023-11-19T02:38:03;99633.09;;;8.43;100.00
7050;BME280;22263;52.260;10.548;2023-11-19T02:40:34;99634.72;;;8.55;100.00
7050;BME280;22263;52.260;10.548;2023-11-19T02:43:06;99631.56;;;8.53;100.00
7050;BME280;22263;52.260;10.548;2023-11-19T02:45:36;99631.56;;;8.53;100.00
7050;BME280;22263;52.260;10.548;2023-11-19T02:48:07;99618.59;;;8.53;100.00
7050;BME280;22263;52.260;10.548;2023-11-19T02:50:40;99614.66;;;8.58;100.00
7050;BME280;22263;52.260;10.548;2023-11-19T02:53:09;99598.88;;;8.55;100.00
7050;BME280;22263;52.260;10.548;2023-11-19T02:55:40;99599.72;;;8.62;100.00
7050;BME280;22263;52.260;10.548;2023-11-19T02:58:17;99598.53;;;8.60;100.00
7050;BME280;22263;52.260;10.548;2023-11-19T03:00:51;99589.13;;;8.75;100.00
7050;BME280;22263;52.260;10.548;2023-11-19T03:03:25;99596.19;;;8.62;100.00
7050;BME280;22263;52.260;10.548;2023-11-19T03:05:55;99587.97;;;8.76;100.00
7050;BME280;22263;52.260;10.548;2023-11-19T03:08:25;99582.41;;;8.69;100.00
7050;BME280;22263;52.260;10.548;2023-11-19T03:10:55;99587.94;;;8.69;100.00
7050;BME280;22263;52.260;10.548;2023-11-19T03:13:28;99549.69;;;8.53;100.00
7050;BME280;22263;52.260;10.548;2023-11-19T03:15:58;99563.91;;;8.66;100.00
7050;BME280;22263;52.260;10.548;2023-11-19T03:18:28;99567.84;;;8.61;100.00
7050;BME280;22263;52.260;10.548;2023-11-19T03:20:58;99552.47;;;8.64;100.00
7050;BME280;22263;52.260;10.548;2023-11-19T03:23:28;99552.09;;;8.62;100.00
7050;BME280;22263;52.260;10.548;2023-11-19T03:25:57;99535.19;;;8.67;100.00
7050;BME280;22263;52.260;10.548;2023-11-19T03:28:32;99538.34;;;8.76;100.00
7050;BME280;22263;52.260;10.548;2023-11-19T03:31:04;99528.88;;;8.70;100.00
7050;BME280;22263;52.260;10.548;2023-11-19T03:33:35;99527.31;;;8.80;100.00
7050;BME280;22263;52.260;10.548;2023-11-19T03:36:06;99517.50;;;8.82;100.00
7050;BME280;22263;52.260;10.548;2023-11-19T03:38:37;99511.97;;;8.75;100.00
7050;BME280;22263;52.260;10.548;2023-11-19T03:41:12;99512.75;;;8.75;100.00
7050;BME280;22263;52.260;10.548;2023-11-19T03:43:47;99509.63;;;8.84;100.00
7050;BME280;22263;52.260;10.548;2023-11-19T03:46:18;99511.19;;;8.92;100.00
7050;BME280;22263;52.260;10.548;2023-11-19T03:48:49;99499.41;;;8.92;100.00
7050;BME280;22263;52.260;10.548;2023-11-19T03:51:19;99502.53;;;8.94;100.00
7050;BME280;22263;52.260;10.548;2023-11-19T03:53:49;99508.47;;;8.96;100.00
7050;BME280;22263;52.260;10.548;2023-11-19T03:56:18;99500.97;;;9.03;100.00
7050;BME280;22263;52.260;10.548;2023-11-19T03:58:51;99502.56;;;9.08;100.00
7050;BME280;22263;52.260;10.548;2023-11-19T04:01:21;99506.50;;;9.10;100.00
7050;BME280;22263;52.260;10.548;2023-11-19T04:03:51;99506.88;;;9.16;100.00
7050;BME280;22263;52.260;10.548;2023-11-19T04:06:23;99493.09;;;9.16;100.00
7050;BME280;22263;52.260;10.548;2023-11-19T04:08:53;99499.41;;;9.13;100.00
7050;BME280;22263;52.260;10.548;2023-11-19T04:11:22;99491.94;;;9.24;100.00
7050;BME280;22263;52.260;10.548;2023-11-19T04:13:55;99500.59;;;9.33;100.00
7050;BME280;22263;52.260;10.548;2023-11-19T04:16:28;99480.50;;;9.33;100.00
7050;BME280;22263;52.260;10.548;2023-11-19T04:18:58;99475.75;;;9.37;100.00
7050;BME280;22263;52.260;10.548;2023-11-19T04:21:28;99472.59;;;9.45;100.00
7050;BME280;22263;52.260;10.548;2023-11-19T04:23:58;99477.75;;;9.43;100.00
7050;BME280;22263;52.260;10.548;2023-11-19T04:26:28;99468.69;;;9.43;100.00
7050;BME280;22263;52.260;10.548;2023-11-19T04:29:00;99476.94;;;9.46;100.00
7050;BME280;22263;52.260;10.548;2023-11-19T04:31:30;99483.25;;;9.54;100.00
7050;BME280;22263;52.260;10.548;2023-11-19T04:34:01;99473.78;;;9.58;100.00
7050;BME280;22263;52.260;10.548;2023-11-19T04:36:31;99478.50;;;9.65;100.00
7050;BME280;22263;52.260;10.548;2023-11-19T04:39:01;99490.75;;;9.57;100.00
7050;BME280;22263;52.260;10.548;2023-11-19T04:41:31;99476.16;;;9.63;100.00
7050;BME280;22263;52.260;10.548;2023-11-19T04:44:03;99480.47;;;9.68;100.00
7050;BME280;22263;52.260;10.548;2023-11-19T04:46:36;99474.56;;;9.66;100.00
7050;BME280;22263;52.260;10.548;2023-11-19T04:49:05;99483.63;;;9.77;100.00
7050;BME280;22263;52.260;10.548;2023-11-19T04:51:40;99486.78;;;9.69;100.00
7050;BME280;22263;52.260;10.548;2023-11-19T04:54:11;99484.00;;;9.83;100.00
7050;BME280;22263;52.260;10.548;2023-11-19T04:56:45;99489.09;;;9.84;100.00
7050;BME280;22263;52.260;10.548;2023-11-19T04:59:18;99473.31;;;9.85;100.00
7050;BME280;22263;52.260;10.548;2023-11-19T05:01:48;99486.34;;;9.91;100.00
7050;BME280;22263;52.260;10.548;2023-11-19T05:04:17;99478.03;;;9.95;100.00
7050;BME280;22263;52.260;10.548;2023-11-19T05:06:48;99504.09;;;9.90;100.00
7050;BME280;22263;52.260;10.548;2023-11-19T05:09:18;99486.34;;;9.91;100.00
7050;BME280;22263;52.260;10.548;2023-11-19T05:11:47;99496.56;;;9.94;100.00
7050;BME280;22263;52.260;10.548;2023-11-19T05:14:20;99489.06;;;10.05;100.00
7050;BME280;22263;52.260;10.548;2023-11-19T05:16:51;99489.00;;;10.13;100.00
7050;BME280;22263;52.260;10.548;2023-11-19T05:19:21;99498.53;;;10.04;100.00
7050;BME280;22263;52.260;10.548;2023-11-19T05:21:51;99479.56;;;10.10;100.00
7050;BME280;22263;52.260;10.548;2023-11-19T05:24:21;99476.41;;;10.08;100.00
7050;BME280;22263;52.260;10.548;2023-11-19T05:26:51;99471.31;;;10.06;100.00
7050;BME280;22263;52.260;10.548;2023-11-19T05:29:24;99468.13;;;10.04;100.00
7050;BME280;22263;52.260;10.548;2023-11-19T05:31:54;99481.94;;;10.19;100.00
7050;BME280;22263;52.260;10.548;2023-11-19T05:34:24;99481.94;;;10.19;100.00
7050;BME280;22263;52.260;10.548;2023-11-19T05:36:54;99462.22;;;10.17;100.00
7050;BME280;22263;52.260;10.548;2023-11-19T05:39:24;99453.09;;;10.13;100.00
7050;BME280;22263;52.260;10.548;2023-11-19T05:41:53;99457.47;;;10.17;100.00
7050;BME280;22263;52.260;10.548;2023-11-19T05:44:26;99451.50;;;10.22;100.00
7050;BME280;22263;52.260;10.548;2023-11-19T05:46:56;99467.69;;;10.27;100.00
7050;BME280;22263;52.260;10.548;2023-11-19T05:49:26;99450.72;;;10.25;100.00
7050;BME280;22263;52.260;10.548;2023-11-19T05:51:56;99441.66;;;10.18;100.00
7050;BME280;22263;52.260;10.548;2023-11-19T05:54:26;99439.69;;;10.15;100.00
7050;BME280;22263;52.260;10.548;2023-11-19T05:56:58;99440.09;;;10.13;100.00
7050;BME280;22263;52.260;10.548;2023-11-19T05:59:30;99448.78;;;10.15;100.00
7050;BME280;22263;52.260;10.548;2023-11-19T06:02:00;99449.19;;;10.06;100.00
7050;BME280;22263;52.260;10.548;2023-11-19T06:04:30;99462.22;;;10.06;100.00
7050;BME280;22263;52.260;10.548;2023-11-19T06:07:00;99454.31;;;10.12;100.00
7050;BME280;22263;52.260;10.548;2023-11-19T06:09:30;99460.63;;;10.08;100.00
7050;BME280;22263;52.260;10.548;2023-11-19T06:12:00;99454.31;;;10.08;100.00
7050;BME280;22263;52.260;10.548;2023-11-19T06:14:35;99455.06;;;10.12;100.00
7050;BME280;22263;52.260;10.548;2023-11-19T06:17:05;99452.72;;;10.18;100.00
7050;BME280;22263;52.260;10.548;2023-11-19T06:19:38;99453.88;;;10.27;100.00
7050;BME280;22263;52.260;10.548;2023-11-19T06:22:07;99438.88;;;10.25;100.00
7050;BME280;22263;52.260;10.548;2023-11-19T06:24:37;99447.94;;;10.29;100.00
7050;BME280;22263;52.260;10.548;2023-11-19T06:27:07;99452.25;;;10.37;100.00
7050;BME280;22263;52.260;10.548;2023-11-19T06:29:42;99444.34;;;10.39;100.00
7050;BME280;22263;52.260;10.548;2023-11-19T06:32:11;99461.28;;;10.44;100.00
7050;BME280;22263;52.260;10.548;2023-11-19T06:34:41;99435.59;;;10.47;100.00
7050;BME280;22263;52.260;10.548;2023-11-19T06:37:11;99456.56;;;10.41;100.00
7050;BME280;22263;52.260;10.548;2023-11-19T06:39:41;99448.19;;;10.56;100.00
7050;BME280;22263;52.260;10.548;2023-11-19T06:42:11;99451.75;;;10.53;100.00
7050;BME280;22263;52.260;10.548;2023-11-19T06:44:43;99452.66;;;10.35;100.00
7050;BME280;22263;52.260;10.548;2023-11-19T06:47:13;99454.56;;;10.49;100.00
7050;BME280;22263;52.260;10.548;2023-11-19T06:49:43;99462.50;;;10.40;100.00
7050;BME280;22263;52.260;10.548;2023-11-19T06:52:13;99465.19;;;10.50;100.00
7050;BME280;22263;52.260;10.548;2023-11-19T06:54:43;99474.28;;;10.55;100.00
7050;BME280;22263;52.260;10.548;2023-11-19T06:57:14;99476.97;;;10.65;100.00
7050;BME280;22263;52.260;10.548;2023-11-19T06:59:48;99466.75;;;10.55;100.00
7050;BME280;22263;52.260;10.548;2023-11-19T07:02:18;99475.84;;;10.59;100.00
7050;BME280;22263;52.260;10.548;2023-11-19T07:04:51;99472.91;;;10.80;100.00
7050;BME280;22263;52.260;10.548;2023-11-19T07:07:21;99469.00;;;10.74;100.00
7050;BME280;22263;52.260;10.548;2023-11-19T07:09:51;99479.72;;;10.65;100.00
7050;BME280;22263;52.260;10.548;2023-11-19T07:12:21;99485.69;;;10.60;100.00
7050;BME280;22263;52.260;10.548;2023-11-19T07:14:55;99487.63;;;10.67;100.00
7050;BME280;22263;52.260;10.548;2023-11-19T07:17:25;99483.75;;;10.54;100.00
7050;BME280;22263;52.260;10.548;2023-11-19T07:19:55;99486.50;;;10.57;100.00
7050;BME280;22263;52.260;10.548;2023-11-19T07:22:29;99481.78;;;10.54;100.00
7050;BME280;22263;52.260;10.548;2023-11-19T07:24:59;99489.31;;;10.50;100.00
7050;BME280;22263;52.260;10.548;2023-11-19T07:27:29;99490.03;;;10.61;100.00
7050;BME280;22263;52.260;10.548;2023-11-19T07:30:01;99487.31;;;10.54;100.00
7050;BME280;22263;52.260;10.548;2023-11-19T07:32:31;99501.84;;;10.69;100.00
7050;BME280;22263;52.260;10.548;2023-11-19T07:35:01;99496.66;;;10.74;100.00
7050;BME280;22263;52.260;10.548;2023-11-19T07:37:32;99499.41;;;10.74;100.00
7050;BME280;22263;52.260;10.548;2023-11-19T07:40:03;99495.03;;;10.80;100.00
7050;BME280;22263;52.260;10.548;2023-11-19T07:42:33;99487.53;;;10.81;100.00
7050;BME280;22263;52.260;10.548;2023-11-19T07:45:13;99489.56;;;10.73;100.00
7050;BME280;22263;52.260;10.548;2023-11-19T07:48:49;99484.75;;;10.84;100.00
7050;BME280;22263;52.260;10.548;2023-11-19T07:51:19;99492.72;;;10.72;100.00
7050;BME280;22263;52.260;10.548;2023-11-19T07:54:01;99495.44;;;10.82;100.00
7050;BME280;22263;52.260;10.548;2023-11-19T07:56:33;99498.59;;;10.81;100.00
7050;BME280;22263;52.260;10.548;2023-11-19T07:59:04;99497.34;;;10.92;100.00
7050;BME280;22263;52.260;10.548;2023-11-19T08:01:36;99506.34;;;11.04;100.00
7050;BME280;22263;52.260;10.548;2023-11-19T08:04:06;99513.25;;;11.33;100.00
7050;BME280;22263;52.260;10.548;2023-11-19T08:06:37;99525.66;;;11.62;100.00
7050;BME280;22263;52.260;10.548;2023-11-19T08:09:07;99512.41;;;11.88;100.00
7050;BME280;22263;52.260;10.548;2023-11-19T08:11:41;99517.75;;;12.05;100.00
7050;BME280;22263;52.260;10.548;2023-11-19T08:14:11;99518.38;;;12.20;100.00
7050;BME280;22263;52.260;10.548;2023-11-19T08:16:44;99510.63;;;12.42;100.00
7050;BME280;22263;52.260;10.548;2023-11-19T08:19:14;99502.41;;;12.65;100.00
7050;BME280;22263;52.260;10.548;2023-11-19T08:21:44;99506.56;;;12.80;100.00
7050;BME280;22263;52.260;10.548;2023-11-19T08:24:16;99512.09;;;13.07;100.00
7050;BME280;22263;52.260;10.548;2023-11-19T08:26:45;99519.78;;;13.49;100.00
7050;BME280;22263;52.260;10.548;2023-11-19T08:29:31;99502.22;;;13.56;100.00
7050;BME280;22263;52.260;10.548;2023-11-19T08:32:05;99522.63;;;13.69;100.00
7050;BME280;22263;52.260;10.548;2023-11-19T08:34:35;99500.44;;;13.89;100.00
7050;BME280;22263;52.260;10.548;2023-11-19T08:37:05;99527.50;;;14.08;100.00
7050;BME280;22263;52.260;10.548;2023-11-19T08:39:35;99505.03;;;14.19;100.00
7050;BME280;22263;52.260;10.548;2023-11-19T08:42:05;99506.53;;;14.04;100.00
7050;BME280;22263;52.260;10.548;2023-11-19T08:44:38;99512.06;;;13.84;100.00
7050;BME280;22263;52.260;10.548;2023-11-19T08:47:13;99513.44;;;14.15;100.00
7050;BME280;22263;52.260;10.548;2023-11-19T08:49:44;99528.66;;;14.50;100.00
7050;BME280;22263;52.260;10.548;2023-11-19T08:52:32;99530.06;;;14.78;100.00
7050;BME280;22263;52.260;10.548;2023-11-19T08:55:03;99520.56;;;15.11;100.00
7050;BME280;22263;52.260;10.548;2023-11-19T08:57:34;99517.28;;;15.16;100.00
7050;BME280;22263;52.260;10.548;2023-11-19T09:00:05;99515.72;;;14.79;100.00
7050;BME280;22263;52.260;10.548;2023-11-19T09:02:37;99522.97;;;14.37;100.00
7050;BME280;22263;52.260;10.548;2023-11-19T09:05:08;99524.84;;;14.21;100.00
7050;BME280;22263;52.260;10.548;2023-11-19T09:07:40;99537.78;;;14.31;100.00
7050;BME280;22263;52.260;10.548;2023-11-19T09:10:10;99538.56;;;13.88;100.00
7050;BME280;22263;52.260;10.548;2023-11-19T09:12:40;99545.75;;;13.63;100.00
7050;BME280;22263;52.260;10.548;2023-11-19T09:15:10;99551.44;;;13.56;100.00
7050;BME280;22263;52.260;10.548;2023-11-19T09:17:42;99545.41;;;13.34;100.00
7050;BME280;22263;52.260;10.548;2023-11-19T09:20:16;99553.81;;;13.30;100.00
7050;BME280;22263;52.260;10.548;2023-11-19T09:22:46;99550.69;;;13.28;100.00
7050;BME280;22263;52.260;10.548;2023-11-19T09:25:16;99553.03;;;13.30;100.00
7050;BME280;22263;52.260;10.548;2023-11-19T09:27:46;99560.16;;;13.31;100.00
7050;BME280;22263;52.260;10.548;2023-11-19T09:30:17;99555.44;;;13.28;100.00
7050;BME280;22263;52.260;10.548;2023-11-19T09:32:49;99560.63;;;13.26;100.00
7050;BME280;22263;52.260;10.548;2023-11-19T09:35:19;99568.22;;;13.22;100.00
7050;BME280;22263;52.260;10.548;2023-11-19T09:37:49;99568.97;;;13.26;100.00
7050;BME280;22263;52.260;10.548;2023-11-19T09:40:19;99574.31;;;13.13;100.00
7050;BME280;22263;52.260;10.548;2023-11-19T09:42:51;99568.28;;;13.18;100.00
7050;BME280;22263;52.260;10.548;2023-11-19T09:45:21;99571.00;;;13.22;100.00
7050;BME280;22263;52.260;10.548;2023-11-19T09:47:55;99584.63;;;13.39;100.00
7050;BME280;22263;52.260;10.548;2023-11-19T09:50:27;99580.94;;;13.19;100.00
7050;BME280;22263;52.260;10.548;2023-11-19T09:52:57;99590.66;;;13.34;100.00
7050;BME280;22263;52.260;10.548;2023-11-19T09:55:27;99582.63;;;13.13;100.00
7050;BME280;22263;52.260;10.548;2023-11-19T09:57:57;99581.22;;;13.28;100.00
7050;BME280;22263;52.260;10.548;2023-11-19T10:00:28;99584.94;;;13.45;100.00
7050;BME280;22263;52.260;10.548;2023-11-19T10:03:02;99573.91;;;13.88;100.00
7050;BME280;22263;52.260;10.548;2023-11-19T10:05:32;99565.06;;;14.16;100.00
7050;BME280;22263;52.260;10.548;2023-11-19T10:08:03;99565.59;;;14.31;100.00
7050;BME280;22263;52.260;10.548;2023-11-19T10:10:33;99568.69;;;14.36;100.00
7050;BME280;22263;52.260;10.548;2023-11-19T10:13:03;99569.94;;;14.32;100.00
7050;BME280;22263;52.260;10.548;2023-11-19T10:15:37;99578.31;;;14.91;100.00
7050;BME280;22263;52.260;10.548;2023-11-19T10:18:09;99563.91;;;15.64;100.00
7050;BME280;22263;52.260;10.548;2023-11-19T10:20:42;99566.50;;;16.20;100.00
7050;BME280;22263;52.260;10.548;2023-11-19T10:23:12;99566.69;;;16.42;100.00
7050;BME280;22263;52.260;10.548;2023-11-19T10:25:42;99572.66;;;16.85;100.00
7050;BME280;22263;52.260;10.548;2023-11-19T10:28:15;99574.28;;;17.24;100.00
7050;BME280;22263;52.260;10.548;2023-11-19T10:30:48;99578.09;;;16.76;100.00
7050;BME280;22263;52.260;10.548;2023-11-19T10:33:20;99578.91;;;16.89;100.00
7050;BME280;22263;52.260;10.548;2023-11-19T10:35:54;99579.03;;;16.98;100.00
7050;BME280;22263;52.260;10.548;2023-11-19T10:38:32;99575.44;;;16.28;100.00
7050;BME280;22263;52.260;10.548;2023-11-19T10:41:04;99578.88;;;16.19;100.00
7050;BME280;22263;52.260;10.548;2023-11-19T10:43:43;99563.06;;;15.51;100.00
7050;BME280;22263;52.260;10.548;2023-11-19T10:46:14;99566.81;;;14.89;100.00
7050;BME280;22263;52.260;10.548;2023-11-19T10:48:50;99557.78;;;14.46;100.00
7050;BME280;22263;52.260;10.548;2023-11-19T10:51:20;99554.91;;;14.89;100.00
7050;BME280;22263;52.260;10.548;2023-11-19T10:53:51;99565.91;;;14.76;100.00
7050;BME280;22263;52.260;10.548;2023-11-19T10:56:24;99560.28;;;15.15;100.00
7050;BME280;22263;52.260;10.548;2023-11-19T10:58:55;99556.44;;;15.09;100.00
7050;BME280;22263;52.260;10.548;2023-11-19T11:01:33;99550.88;;;15.61;100.00
7050;BME280;22263;52.260;10.548;2023-11-19T11:04:13;99559.34;;;16.19;100.00
7050;BME280;22263;52.260;10.548;2023-11-19T11:06:44;99550.19;;;16.76;100.00
7050;BME280;22263;52.260;10.548;2023-11-19T11:09:14;99552.56;;;16.90;100.00
7050;BME280;22263;52.260;10.548;2023-11-19T11:11:46;99554.47;;;17.19;100.00
7050;BME280;22263;52.260;10.548;2023-11-19T11:14:18;99561.84;;;17.13;100.00
7050;BME280;22263;52.260;10.548;2023-11-19T11:16:51;99557.78;;;16.88;100.00
7050;BME280;22263;52.260;10.548;2023-11-19T11:19:26;99540.81;;;17.46;100.00
7050;BME280;22263;52.260;10.548;2023-11-19T11:21:57;99540.03;;;17.58;100.00
7050;BME280;22263;52.260;10.548;2023-11-19T11:24:39;99554.50;;;17.69;100.00
7050;BME280;22263;52.260;10.548;2023-11-19T11:27:38;99561.81;;;18.01;100.00
7050;BME280;22263;52.260;10.548;2023-11-19T11:30:20;99556.38;;;17.34;100.00
7050;BME280;22263;52.260;10.548;2023-11-19T11:33:06;99561.31;;;17.30;100.00
7050;BME280;22263;52.260;10.548;2023-11-19T11:35:50;99548.34;;;17.74;100.00
7050;BME280;22263;52.260;10.548;2023-11-19T11:38:23;99570.66;;;18.34;100.00
7050;BME280;22263;52.260;10.548;2023-11-19T11:41:20;99552.78;;;18.53;100.00
7050;BME280;22263;52.260;10.548;2023-11-19T11:43:56;99557.28;;;18.16;100.00
7050;BME280;22263;52.260;10.548;2023-11-19T11:46:54;99567.06;;;18.34;100.00
7050;BME280;22263;52.260;10.548;2023-11-19T11:49:25;99570.34;;;17.85;100.00
7050;BME280;22263;52.260;10.548;2023-11-19T11:52:03;99551.84;;;18.00;100.00
7050;BME280;22263;52.260;10.548;2023-11-19T11:54:34;99558.72;;;18.21;100.00
7050;BME280;22263;52.260;10.548;2023-11-19T11:57:07;99557.53;;;18.09;100.00
7050;BME280;22263;52.260;10.548;2023-11-19T11:59:46;99566.28;;;18.33;100.00
7050;BME280;22263;52.260;10.548;2023-11-19T12:02:18;99564.97;;;18.25;100.00
7050;BME280;22263;52.260;10.548;2023-11-19T12:04:49;99560.44;;;18.40;100.00
7050;BME280;22263;52.260;10.548;2023-11-19T12:07:24;99563.78;;;18.13;100.00
7050;BME280;22263;52.260;10.548;2023-11-19T12:10:06;99558.38;;;18.19;100.00
7050;BME280;22263;52.260;10.548;2023-11-19T12:12:39;99560.22;;;18.00;100.00
7050;BME280;22263;52.260;10.548;2023-11-19T12:15:10;99556.91;;;17.93;100.00
7050;BME280;22263;52.260;10.548;2023-11-19T12:17:47;99551.69;;;17.44;100.00
7050;BME280;22263;52.260;10.548;2023-11-19T12:20:22;99560.31;;;17.12;100.00
7050;BME280;22263;52.260;10.548;2023-11-19T12:23:04;99541.84;;;17.77;100.00
7050;BME280;22263;52.260;10.548;2023-11-19T12:25:35;99562.63;;;17.76;100.00
7050;BME280;22263;52.260;10.548;2023-11-19T12:28:05;99547.75;;;17.41;100.00
7050;BME280;22263;52.260;10.548;2023-11-19T12:30:35;99546.56;;;17.30;100.00
7050;BME280;22263;52.260;10.548;2023-11-19T12:33:08;99547.50;;;16.73;100.00
7050;BME280;22263;52.260;10.548;2023-11-19T12:35:39;99546.03;;;16.39;100.00
7050;BME280;22263;52.260;10.548;2023-11-19T12:38:18;99553.25;;;16.37;100.00
7050;BME280;22263;52.260;10.548;2023-11-19T12:41:02;99552.31;;;16.56;100.00
7050;BME280;22263;52.260;10.548;2023-11-19T12:43:32;99550.53;;;16.21;100.00
7050;BME280;22263;52.260;10.548;2023-11-19T12:46:17;99552.44;;;16.24;100.00
7050;BME280;22263;52.260;10.548;2023-11-19T12:48:47;99538.59;;;16.20;100.00
7050;BME280;22263;52.260;10.548;2023-11-19T12:51:17;99545.03;;;16.17;100.00
7050;BME280;22263;52.260;10.548;2023-11-19T12:53:51;99546.44;;;16.09;100.00
7050;BME280;22263;52.260;10.548;2023-11-19T12:56:21;99546.63;;;16.02;100.00
7050;BME280;22263;52.260;10.548;2023-11-19T12:58:52;99554.41;;;15.94;100.00
7050;BME280;22263;52.260;10.548;2023-11-19T13:01:21;99544.22;;;15.88;100.00
7050;BME280;22263;52.260;10.548;2023-11-19T13:03:52;99558.25;;;15.84;100.00
7050;BME280;22263;52.260;10.548;2023-11-19T13:06:21;99553.38;;;15.56;100.00
7050;BME280;22263;52.260;10.548;2023-11-19T13:08:54;99555.94;;;15.31;100.00
7050;BME280;22263;52.260;10.548;2023-11-19T13:11:34;99556.66;;;15.35;100.00
7050;BME280;22263;52.260;10.548;2023-11-19T13:14:06;99565.25;;;15.24;100.00
7050;BME280;22263;52.260;10.548;2023-11-19T13:16:38;99555.69;;;14.89;100.00
7050;BME280;22263;52.260;10.548;2023-11-19T13:19:10;99560.47;;;14.69;100.00
7050;BME280;22263;52.260;10.548;2023-11-19T13:21:39;99563.34;;;14.46;100.00